Time;durP1;ratioP1;P1;durP2;ratioP2;P2;SDS_P1;SDS_P2;PMS_P1;PMS_P2;Temp;Humidity;BMP_temperature;BMP_pressure;BME280_temperature;BME280_humidity;BME280_pressure;Samples;Min_cycle;Max_cycle;Signal;HPM_P1;HPM_P2
2023/03/05 00:01:36;;;;;;;30.40;10.60;;;;;;;-2.98;66.86;99781.08;130940;1254;107643;-80
2023/03/05 00:04:41;;;;;;;28.30;9.70;;;;;;;-3.00;67.06;99775.60;130874;1255;107829;-80
2023/03/05 00:07:47;;;;;;;33.50;11.40;;;;;;;-3.01;67.03;99775.16;130911;1253;107539;-79
2023/03/05 00:10:58;;;;;;;36.10;13.30;;;;;;;-3.01;67.05;99770.61;130902;1251;107618;-81
2023/03/05 00:14:05;;;;;;;33.50;11.80;;;;;;;-2.98;66.94;99773.44;130917;1256;107468;-79
2023/03/05 00:17:10;;;;;;;31.20;11.00;;;;;;;-2.96;67.24;99765.67;131111;1253;107517;-79
2023/03/05 00:20:17;;;;;;;31.60;11.50;;;;;;;-2.95;67.09;99762.31;130930;1256;107520;-79
2023/03/05 00:23:22;;;;;;;23.10;9.20;;;;;;;-2.95;67.19;99760.23;130905;1255;106519;-79
2023/03/05 00:26:29;;;;;;;24.90;9.50;;;;;;;-2.97;67.22;99755.62;130920;1256;107539;-80
2023/03/05 00:29:34;;;;;;;25.90;8.80;;;;;;;-2.96;67.17;99752.10;130980;1256;107548;-80
2023/03/05 00:32:40;;;;;;;24.40;9.40;;;;;;;-2.96;67.12;99750.71;131025;1256;107024;-80
2023/03/05 00:35:47;;;;;;;23.90;9.20;;;;;;;-2.98;67.01;99749.92;131013;1256;107511;-80
2023/03/05 00:38:52;;;;;;;25.40;9.20;;;;;;;-2.98;67.31;99745.22;130940;1251;107376;-79
2023/03/05 00:41:58;;;;;;;30.10;9.60;;;;;;;-2.99;67.06;99744.58;130972;1256;107517;-81
2023/03/05 00:45:05;;;;;;;23.20;8.90;;;;;;;-3.00;67.12;99742.55;130910;1256;107445;-80
2023/03/05 00:48:11;;;;;;;21.40;8.10;;;;;;;-3.00;67.07;99739.77;130926;1251;107534;-78
2023/03/05 00:51:16;;;;;;;25.20;8.90;;;;;;;-3.01;67.06;99733.73;131015;1251;107533;-82
2023/03/05 00:54:22;;;;;;;22.60;8.80;;;;;;;-3.02;67.29;99726.98;130954;1253;107589;-79
2023/03/05 00:57:28;;;;;;;21.30;8.10;;;;;;;-3.04;67.16;99723.46;130951;1256;108706;-81
2023/03/05 01:00:33;;;;;;;21.70;8.00;;;;;;;-3.05;67.23;99718.79;131036;1256;107491;-79
2023/03/05 01:03:46;;;;;;;25.70;8.30;;;;;;;-3.05;67.20;99721.57;130923;1256;107539;-79
2023/03/05 01:06:51;;;;;;;24.90;7.70;;;;;;;-3.05;67.14;99718.63;130946;1256;107470;-81
2023/03/05 01:09:57;;;;;;;24.40;8.50;;;;;;;-3.07;67.17;99714.70;130932;1255;107061;-79
2023/03/05 01:13:03;;;;;;;22.20;8.50;;;;;;;-3.06;67.19;99713.66;130932;1256;106094;-80
2023/03/05 01:16:09;;;;;;;18.20;7.40;;;;;;;-3.07;67.23;99712.32;130915;1252;107538;-79
2023/03/05 01:19:16;;;;;;;20.70;7.40;;;;;;;-3.08;67.04;99710.80;130972;1251;106865;-80
2023/03/05 01:22:22;;;;;;;19.30;6.90;;;;;;;-3.09;67.24;99708.39;130914;1256;106392;-81
2023/03/05 01:25:28;;;;;;;16.30;6.30;;;;;;;-3.08;67.16;99703.84;130878;1253;107544;-80
2023/03/05 01:28:34;;;;;;;19.20;6.80;;;;;;;-3.07;67.00;99701.71;130671;1253;107277;-80
2023/03/05 01:31:40;;;;;;;18.40;6.30;;;;;;;-3.06;66.81;99702.15;130917;1254;107310;-80
2023/03/05 01:34:45;;;;;;;16.20;6.80;;;;;;;-3.05;67.03;99703.48;130822;1255;107495;-79
2023/03/05 01:37:52;;;;;;;16.30;6.60;;;;;;;-3.05;66.94;99696.33;130769;1256;107385;-79
2023/03/05 01:40:57;;;;;;;16.60;6.20;;;;;;;-3.03;67.15;99693.14;130837;1256;108572;-80
2023/03/05 01:44:03;;;;;;;23.40;7.00;;;;;;;-3.03;67.11;99692.09;130944;1257;107525;-83
2023/03/05 01:47:09;;;;;;;14.90;6.00;;;;;;;-3.02;66.88;99694.95;130841;1256;107533;-81
2023/03/05 01:50:20;;;;;;;14.20;5.10;;;;;;;-3.01;66.85;99692.45;130855;1255;107483;-79
2023/03/05 01:53:26;;;;;;;18.20;6.40;;;;;;;-3.00;66.61;99686.20;130862;1256;106829;-79
2023/03/05 01:56:32;;;;;;;17.50;6.20;;;;;;;-3.00;66.90;99689.64;130870;1256;105534;-80
2023/03/05 01:59:42;;;;;;;15.70;5.70;;;;;;;-3.00;66.77;99686.52;130683;1256;107266;-80
2023/03/05 02:02:51;;;;;;;17.00;6.10;;;;;;;-3.00;66.57;99679.36;130885;1258;108325;-81
2023/03/05 02:05:56;;;;;;;19.30;7.70;;;;;;;-3.00;66.42;99681.81;130932;1253;107241;-80
2023/03/05 02:09:02;;;;;;;20.00;7.00;;;;;;;-3.00;66.55;99675.35;130851;1253;107350;-80
2023/03/05 02:12:10;;;;;;;14.20;5.30;;;;;;;-3.00;66.61;99674.37;130860;1256;107545;-83
2023/03/05 02:15:16;;;;;;;12.30;4.90;;;;;;;-3.00;66.39;99676.80;130827;1253;109276;-80
2023/03/05 02:18:23;;;;;;;10.30;4.80;;;;;;;-3.01;66.35;99666.76;130847;1256;105758;-81
2023/03/05 02:21:39;;;;;;;10.30;4.50;;;;;;;-3.00;66.45;99663.91;130898;1255;107526;-80
2023/03/05 02:24:44;;;;;;;9.40;4.40;;;;;;;-3.01;66.15;99659.60;130683;1253;107289;-80
2023/03/05 02:27:56;;;;;;;10.00;4.30;;;;;;;-3.02;66.28;99656.33;130826;1256;105713;-80
2023/03/05 02:31:02;;;;;;;9.30;4.00;;;;;;;-3.01;66.35;99654.58;130866;1258;107598;-81
2023/03/05 02:34:08;;;;;;;12.50;4.30;;;;;;;-3.02;66.28;99648.85;130644;1253;107618;-80
2023/03/05 02:37:13;;;;;;;10.30;4.10;;;;;;;-3.00;65.98;99649.29;130799;1260;107542;-81
2023/03/05 02:40:19;;;;;;;9.40;3.70;;;;;;;-2.99;66.36;99648.18;130805;1253;107559;-80
2023/03/05 02:43:25;;;;;;;10.50;3.60;;;;;;;-2.98;66.13;99641.85;130710;1258;107377;-78
2023/03/05 02:46:32;;;;;;;8.90;3.80;;;;;;;-2.96;65.94;99645.92;130866;1256;107543;-81
2023/03/05 02:49:38;;;;;;;9.20;3.90;;;;;;;-2.94;65.95;99642.89;130745;1253;108159;-80
2023/03/05 02:52:43;;;;;;;9.10;3.70;;;;;;;-2.92;65.70;99642.63;130875;1255;107515;-82
2023/03/05 02:55:53;;;;;;;7.30;3.50;;;;;;;-2.89;65.86;99639.64;130976;1255;107466;-81
2023/03/05 02:58:59;;;;;;;8.50;3.50;;;;;;;-2.86;65.71;99639.47;131012;1256;107559;-81
2023/03/05 03:02:04;;;;;;;8.00;3.30;;;;;;;-2.84;65.67;99635.54;130777;1256;107261;-81
2023/03/05 03:05:11;;;;;;;9.30;3.30;;;;;;;-2.83;65.87;99633.23;130960;1257;105965;-80
2023/03/05 03:08:17;;;;;;;8.60;3.10;;;;;;;-2.81;65.46;99628.62;131135;1256;107464;-80
2023/03/05 03:11:22;;;;;;;9.20;3.40;;;;;;;-2.80;65.74;99628.86;130974;1256;106395;-81
2023/03/05 03:14:30;;;;;;;8.80;3.20;;;;;;;-2.78;65.73;99627.38;130957;1255;107532;-79
2023/03/05 03:17:37;;;;;;;7.40;3.30;;;;;;;-2.77;65.72;99628.70;131072;1254;107550;-80
2023/03/05 03:20:43;;;;;;;7.10;3.10;;;;;;;-2.76;65.66;99622.39;130935;1252;105712;-81
2023/03/05 03:23:49;;;;;;;9.30;3.40;;;;;;;-2.76;65.77;99615.79;131124;1255;108332;-81
2023/03/05 03:26:55;;;;;;;10.20;4.10;;;;;;;-2.78;66.05;99616.04;131032;1256;107556;-80
2023/03/05 03:30:03;;;;;;;10.30;3.60;;;;;;;-2.80;66.06;99617.04;130946;1256;107265;-81
2023/03/05 03:33:09;;;;;;;10.40;4.00;;;;;;;-2.83;65.98;99611.84;131012;1255;107479;-81
2023/03/05 03:36:16;;;;;;;8.60;3.80;;;;;;;-2.87;65.60;99611.52;131027;1256;107443;-80
2023/03/05 03:39:22;;;;;;;10.30;4.00;;;;;;;-2.90;65.92;99606.96;131152;1256;107505;-80
2023/03/05 03:42:28;;;;;;;9.50;4.10;;;;;;;-2.93;65.64;99604.73;131076;1256;107520;-80
2023/03/05 03:45:34;;;;;;;10.80;3.90;;;;;;;-2.98;65.56;99600.45;130962;1255;107512;-80
2023/03/05 03:48:39;;;;;;;9.40;3.90;;;;;;;-3.01;65.86;99604.61;130988;1254;107400;-80
2023/03/05 03:51:45;;;;;;;8.10;3.50;;;;;;;-3.04;65.95;99601.16;131101;1256;107496;-81
2023/03/05 03:54:51;;;;;;;11.30;4.00;;;;;;;-3.07;66.07;99599.02;131174;1256;106522;-81
2023/03/05 03:57:57;;;;;;;9.50;4.00;;;;;;;-3.10;66.10;99596.94;131230;1251;107519;-79
2023/03/05 04:01:03;;;;;;;7.50;3.60;;;;;;;-3.15;65.91;99595.45;130962;1252;107676;-80
2023/03/05 04:04:09;;;;;;;8.60;3.30;;;;;;;-3.19;65.97;99594.06;131012;1255;107211;-79
2023/03/05 04:07:15;;;;;;;8.60;4.00;;;;;;;-3.20;66.11;99591.36;130934;1256;106686;-82
2023/03/05 04:10:21;;;;;;;8.30;3.60;;;;;;;-3.22;66.02;99590.80;131039;1256;108531;-80
2023/03/05 04:13:27;;;;;;;7.10;3.20;;;;;;;-3.23;65.74;99588.21;131087;1253;107106;-81
2023/03/05 04:16:33;;;;;;;9.70;3.50;;;;;;;-3.22;65.70;99583.44;131219;1251;107915;-81
2023/03/05 04:19:39;;;;;;;6.80;3.20;;;;;;;-3.19;66.04;99578.80;131176;1256;107480;-81
2023/03/05 04:22:44;;;;;;;8.30;3.10;;;;;;;-3.19;65.90;99579.31;130972;1256;107275;-80
2023/03/05 04:25:50;;;;;;;9.30;3.40;;;;;;;-3.17;65.71;99579.54;130778;1256;107545;-82
2023/03/05 04:28:56;;;;;;;5.20;2.60;;;;;;;-3.12;65.69;99573.56;131034;1251;107543;-81
2023/03/05 04:32:02;;;;;;;5.80;3.00;;;;;;;-3.05;65.74;99569.33;131021;1256;107586;-82
2023/03/05 04:35:09;;;;;;;7.40;3.30;;;;;;;-3.00;65.59;99562.62;130904;1256;107559;-79
2023/03/05 04:38:15;;;;;;;8.50;3.20;;;;;;;-2.95;65.59;99562.51;130934;1256;130324;-80
2023/03/05 04:41:20;;;;;;;6.20;2.80;;;;;;;-2.91;65.21;99556.05;130991;1256;107495;-81
2023/03/05 04:44:26;;;;;;;7.20;3.30;;;;;;;-2.88;65.29;99554.48;130935;1263;106233;-80
2023/03/05 04:47:32;;;;;;;8.80;3.40;;;;;;;-2.86;65.31;99549.33;130933;1253;107557;-83
2023/03/05 04:50:38;;;;;;;8.80;4.10;;;;;;;-2.84;65.32;99550.81;130939;1253;107495;-80
2023/03/05 04:53:43;;;;;;;9.90;3.70;;;;;;;-2.84;65.71;99545.53;130982;1256;107553;-80
2023/03/05 04:56:49;;;;;;;10.10;3.90;;;;;;;-2.83;65.25;99543.42;131121;1254;107454;-81
2023/03/05 04:59:55;;;;;;;12.60;4.50;;;;;;;-2.82;65.34;99536.90;131248;1253;107616;-80
2023/03/05 05:03:01;;;;;;;8.10;3.90;;;;;;;-2.81;65.35;99537.38;131075;1255;107373;-79
2023/03/05 05:06:07;;;;;;;9.70;4.20;;;;;;;-2.81;65.33;99531.81;131057;1256;107353;-79
2023/03/05 05:09:13;;;;;;;11.90;4.60;;;;;;;-2.80;65.36;99534.75;131064;1256;107529;-80
2023/03/05 05:12:19;;;;;;;10.20;4.80;;;;;;;-2.81;65.38;99535.46;130959;1257;107470;-77
2023/03/05 05:15:25;;;;;;;14.10;5.70;;;;;;;-2.79;65.78;99532.23;131106;1250;107493;-80
2023/03/05 05:18:30;;;;;;;11.70;5.20;;;;;;;-2.78;65.69;99528.87;131150;1255;105821;-73
2023/03/05 05:21:36;;;;;;;13.40;5.70;;;;;;;-2.78;65.80;99523.84;130960;1258;108123;-79
2023/03/05 05:24:42;;;;;;;14.60;6.30;;;;;;;-2.78;65.73;99523.45;131001;1255;107532;-82
2023/03/05 05:27:47;;;;;;;21.50;10.30;;;;;;;-2.79;65.47;99523.34;131073;1256;107559;-80
2023/03/05 05:30:53;;;;;;;21.90;11.20;;;;;;;-2.79;66.04;99522.84;131506;1253;107476;-79
2023/03/05 05:34:00;;;;;;;17.50;9.10;;;;;;;-2.80;65.62;99518.00;131256;1250;107542;-76
2023/03/05 05:37:06;;;;;;;24.40;11.90;;;;;;;-2.78;65.92;99522.40;131306;1250;107290;-80
2023/03/05 05:40:13;;;;;;;26.40;13.20;;;;;;;-2.78;65.74;99522.06;131239;1255;107147;-79
2023/03/05 05:43:19;;;;;;;35.00;16.40;;;;;;;-2.77;65.95;99524.44;131549;1250;105626;-80
2023/03/05 05:46:25;;;;;;;38.10;14.50;;;;;;;-2.74;66.07;99523.96;131512;1255;107500;-78
2023/03/05 05:49:30;;;;;;;61.40;22.10;;;;;;;-2.72;65.97;99518.62;131169;1256;107552;-81
2023/03/05 05:52:36;;;;;;;43.10;16.70;;;;;;;-2.70;66.15;99512.93;131150;1254;108789;-80
2023/03/05 05:55:42;;;;;;;102.60;35.30;;;;;;;-2.66;66.24;99511.13;131217;1253;107331;-80
2023/03/05 05:58:49;;;;;;;49.80;18.60;;;;;;;-2.61;66.27;99509.25;131215;1254;107642;-80
2023/03/05 06:01:55;;;;;;;82.20;27.90;;;;;;;-2.56;66.49;99506.05;131323;1256;107513;-80
2023/03/05 06:05:01;;;;;;;114.50;36.50;;;;;;;-2.52;66.30;99499.34;131459;1251;107553;-80
2023/03/05 06:08:06;;;;;;;74.70;30.70;;;;;;;-2.46;66.34;99499.39;131362;1256;107437;-81
2023/03/05 06:11:12;;;;;;;52.20;23.30;;;;;;;-2.40;66.34;99504.41;131130;1256;108659;-82
2023/03/05 06:14:18;;;;;;;57.30;30.00;;;;;;;-2.32;66.87;99512.16;131441;1253;107105;-77
2023/03/05 06:17:24;;;;;;;46.10;24.10;;;;;;;-2.20;66.90;99512.82;131011;1256;107500;-76
2023/03/05 06:20:30;;;;;;;34.20;18.80;;;;;;;-2.01;66.97;99505.76;130993;1264;107542;-73
2023/03/05 06:23:36;;;;;;;29.40;14.90;;;;;;;-1.82;67.00;99494.34;131003;1256;107378;-75
2023/03/05 06:26:41;;;;;;;22.40;12.00;;;;;;;-1.62;66.96;99476.73;130955;1256;107530;-76
2023/03/05 06:29:47;;;;;;;47.90;28.60;;;;;;;-1.43;67.10;99476.64;130987;1256;107475;-75
2023/03/05 06:32:53;;;;;;;33.70;15.40;;;;;;;-1.29;67.07;99487.39;131010;1256;107414;-74
2023/03/05 06:35:59;;;;;;;38.50;21.50;;;;;;;-1.19;66.93;99497.24;130983;1257;106280;-76
2023/03/05 06:39:05;;;;;;;981.90;545.70;;;;;;;-1.10;66.83;99489.77;130960;1256;107533;-76
2023/03/05 06:42:11;;;;;;;322.80;131.20;;;;;;;-1.05;66.96;99483.82;130973;1256;107544;-75
2023/03/05 06:45:16;;;;;;;107.10;40.20;;;;;;;-0.97;67.12;99480.00;131127;1255;107565;-73
2023/03/05 06:48:22;;;;;;;61.50;24.80;;;;;;;-0.90;67.18;99468.52;131081;1269;107580;-73
2023/03/05 06:51:29;;;;;;;46.00;19.10;;;;;;;-0.83;67.07;99457.41;131047;1254;105452;-74
2023/03/05 06:54:35;;;;;;;33.00;15.30;;;;;;;-0.77;67.11;99462.98;131042;1256;107578;-73
2023/03/05 06:57:41;;;;;;;39.90;16.10;;;;;;;-0.72;67.00;99478.40;131167;1256;107695;-73
2023/03/05 07:00:47;;;;;;;497.20;181.20;;;;;;;-0.67;67.27;99471.22;131008;1253;108511;-74
2023/03/05 07:03:57;;;;;;;571.40;207.20;;;;;;;-0.61;67.24;99477.13;130980;1256;107516;-76
2023/03/05 07:07:03;;;;;;;616.40;228.70;;;;;;;-0.54;67.52;99473.73;131227;1256;107571;-72
2023/03/05 07:10:11;;;;;;;262.40;75.80;;;;;;;-0.48;67.48;99468.03;131000;1250;109170;-75
2023/03/05 07:13:16;;;;;;;445.00;128.80;;;;;;;-0.39;67.36;99465.56;131236;1256;107557;-74
2023/03/05 07:16:24;;;;;;;665.10;207.80;;;;;;;-0.32;67.22;99457.73;130974;1256;107438;-74
2023/03/05 07:19:30;;;;;;;1263.20;439.80;;;;;;;-0.21;67.31;99450.19;131010;1253;105833;-74
2023/03/05 07:22:38;;;;;;;1244.40;430.30;;;;;;;-0.14;67.36;99447.96;130885;1253;106503;-73
2023/03/05 07:25:44;;;;;;;883.30;275.40;;;;;;;-0.03;67.39;99443.19;130805;1253;106415;-74
2023/03/05 07:28:50;;;;;;;350.70;88.60;;;;;;;0.09;67.57;99439.23;130791;1255;108636;-74
2023/03/05 07:31:56;;;;;;;1100.90;380.60;;;;;;;0.20;67.48;99435.84;130976;1255;107539;-75
2023/03/05 07:35:02;;;;;;;648.30;184.00;;;;;;;0.31;67.61;99429.44;130940;1256;108028;-75
2023/03/05 07:38:08;;;;;;;310.20;79.00;;;;;;;0.42;67.47;99426.41;131136;1256;107392;-74
2023/03/05 07:41:18;;;;;;;503.80;122.60;;;;;;;0.51;67.50;99422.12;131125;1255;107521;-75
2023/03/05 07:44:24;;;;;;;341.90;93.00;;;;;;;0.58;67.41;99418.61;131067;1253;107577;-73
2023/03/05 07:47:30;;;;;;;733.80;341.80;;;;;;;0.62;67.56;99412.53;131234;1253;106875;-73
2023/03/05 07:50:36;;;;;;;505.80;241.00;;;;;;;0.65;67.36;99414.23;130826;1269;107535;-76
2023/03/05 07:53:42;;;;;;;139.80;57.10;;;;;;;0.67;67.28;99414.48;130882;1255;107424;-75
2023/03/05 07:56:47;;;;;;;67.80;28.40;;;;;;;0.71;67.38;99416.45;130977;1253;107541;-74
2023/03/05 07:59:53;;;;;;;45.30;22.20;;;;;;;0.77;67.36;99415.14;131115;1256;107513;-78
2023/03/05 08:02:59;;;;;;;37.50;17.50;;;;;;;0.85;67.19;99420.19;131148;1256;107542;-76
2023/03/05 08:06:08;;;;;;;29.60;15.40;;;;;;;0.93;67.34;99419.25;131124;1256;107408;-74
2023/03/05 08:09:14;;;;;;;38.20;25.80;;;;;;;1.00;67.14;99414.54;131135;1256;107603;-75
2023/03/05 08:12:20;;;;;;;25.20;14.50;;;;;;;1.08;67.26;99413.71;131067;1255;108684;-77
2023/03/05 08:15:25;;;;;;;23.40;12.90;;;;;;;1.16;67.00;99409.13;131187;1256;107458;-74
2023/03/05 08:18:31;;;;;;;20.40;10.90;;;;;;;1.21;66.92;99410.70;131163;1253;108858;-74
2023/03/05 08:21:37;;;;;;;23.40;12.70;;;;;;;1.24;67.10;99413.08;131003;1255;107547;-75
2023/03/05 08:24:43;;;;;;;118.60;57.70;;;;;;;1.29;66.88;99412.18;130894;1256;108217;-72
2023/03/05 08:27:50;;;;;;;848.30;398.00;;;;;;;1.30;66.93;99410.73;130857;1256;107491;-71
2023/03/05 08:30:55;;;;;;;612.20;220.50;;;;;;;1.26;66.93;99410.33;130839;1255;107636;-75
2023/03/05 08:34:02;;;;;;;594.30;224.40;;;;;;;1.21;66.94;99413.34;130877;1255;107512;-77
2023/03/05 08:37:09;;;;;;;702.60;279.70;;;;;;;1.16;66.84;99409.11;130846;1256;107635;-72
2023/03/05 08:40:16;;;;;;;598.70;268.70;;;;;;;1.17;66.94;99401.87;131088;1253;107508;-72
2023/03/05 08:43:22;;;;;;;426.40;183.40;;;;;;;1.20;66.85;99397.47;131104;1253;107513;-76
2023/03/05 08:46:28;;;;;;;247.00;107.30;;;;;;;1.22;66.72;99397.99;131153;1258;106685;-75
2023/03/05 08:49:33;;;;;;;84.50;36.60;;;;;;;1.22;66.75;99388.75;131029;1256;107366;-75
2023/03/05 08:52:39;;;;;;;54.70;22.40;;;;;;;1.23;66.75;99385.73;130971;1255;107221;-73
2023/03/05 08:55:53;;;;;;;27.80;12.70;;;;;;;1.20;66.53;99382.41;131079;1251;107391;-74
2023/03/05 08:58:59;;;;;;;24.40;11.90;;;;;;;1.20;66.36;99378.92;130989;1256;105522;-73
2023/03/05 09:02:05;;;;;;;26.80;12.30;;;;;;;1.17;66.22;99378.78;131217;1256;107273;-74
2023/03/05 09:05:11;;;;;;;19.70;9.20;;;;;;;1.18;66.27;99378.66;131064;1253;107234;-76
2023/03/05 09:08:17;;;;;;;19.70;8.90;;;;;;;1.25;66.66;99380.61;131013;1254;107514;-75
2023/03/05 09:11:23;;;;;;;18.90;9.20;;;;;;;1.28;66.32;99378.09;131069;1256;108694;-79
2023/03/05 09:14:29;;;;;;;60.20;19.60;;;;;;;1.27;66.30;99376.48;131285;1255;107639;-75
2023/03/05 09:17:41;;;;;;;21.10;8.10;;;;;;;1.30;66.21;99375.37;131209;1256;107544;-76
2023/03/05 09:20:47;;;;;;;21.70;8.40;;;;;;;1.36;66.64;99375.06;131121;1256;107657;-77
2023/03/05 09:23:58;;;;;;;16.30;7.40;;;;;;;1.42;66.46;99374.80;131144;1255;107574;-76
2023/03/05 09:27:04;;;;;;;14.90;6.80;;;;;;;1.44;66.31;99372.58;131077;1251;107494;-75
2023/03/05 09:30:13;;;;;;;38.40;15.00;;;;;;;1.44;66.56;99375.02;131187;1254;106631;-77
2023/03/05 09:33:18;;;;;;;561.00;188.30;;;;;;;1.45;66.34;99374.71;131030;1257;107520;-74
2023/03/05 09:36:26;;;;;;;500.90;140.10;;;;;;;1.46;66.10;99372.02;130985;1257;107658;-75
2023/03/05 09:39:32;;;;;;;1054.50;389.70;;;;;;;1.45;65.87;99372.13;131148;1256;108614;-75
2023/03/05 09:42:51;;;;;;;840.00;287.40;;;;;;;1.47;66.16;99370.23;131025;1256;107702;-74
2023/03/05 09:46:12;;;;;;;519.00;191.80;;;;;;;1.50;65.89;99368.20;131130;1252;107417;-76
2023/03/05 09:49:21;;;;;;;428.40;148.50;;;;;;;1.51;65.76;99367.42;131112;1254;106579;-74
2023/03/05 09:52:37;;;;;;;434.20;160.70;;;;;;;1.44;65.48;99364.64;130927;1257;107545;-74
2023/03/05 09:55:47;;;;;;;111.40;36.80;;;;;;;1.39;65.34;99365.24;130851;1264;107326;-74
2023/03/05 09:58:56;;;;;;;250.00;95.70;;;;;;;1.33;66.15;99362.34;130827;1256;107477;-75
2023/03/05 10:02:12;;;;;;;68.60;30.00;;;;;;;1.34;66.14;99361.57;130845;1269;107281;-74
2023/03/05 10:05:26;;;;;;;29.70;12.70;;;;;;;1.31;66.54;99362.33;130877;1257;105551;-73
2023/03/05 10:08:41;;;;;;;17.00;7.30;;;;;;;1.22;66.97;99360.52;130842;1256;107550;-72
2023/03/05 10:11:54;;;;;;;23.60;12.30;;;;;;;1.06;67.24;99356.45;130798;1256;107667;-74
2023/03/05 10:15:02;;;;;;;15.00;7.50;;;;;;;1.03;67.63;99356.15;130785;1253;108689;-74
2023/03/05 10:18:17;;;;;;;13.30;7.50;;;;;;;1.02;68.06;99357.65;130848;1257;107934;-75
2023/03/05 10:21:29;;;;;;;15.10;7.00;;;;;;;0.91;68.73;99355.09;130809;1256;107600;-76
2023/03/05 10:24:50;;;;;;;21.50;13.70;;;;;;;0.82;69.51;99352.48;130977;1256;107380;-76
2023/03/05 10:28:00;;;;;;;16.80;8.30;;;;;;;0.82;69.36;99347.41;130790;1266;107634;-75
2023/03/05 10:31:20;;;;;;;18.00;9.50;;;;;;;0.95;69.95;99344.49;130889;1258;107518;-74
2023/03/05 10:34:55;;;;;;;23.50;11.10;;;;;;;0.93;70.60;99341.64;130829;1258;107526;-73
2023/03/05 10:38:16;;;;;;;21.10;13.40;;;;;;;0.85;70.78;99338.96;130811;1257;107529;-74
2023/03/05 10:41:28;;;;;;;19.40;10.90;;;;;;;0.77;71.65;99338.11;130818;1256;107901;-74
2023/03/05 10:44:38;;;;;;;23.60;14.10;;;;;;;0.75;71.43;99330.93;130774;1256;107538;-76
2023/03/05 10:47:49;;;;;;;33.70;17.40;;;;;;;0.84;71.17;99328.17;130842;1256;108691;-75
2023/03/05 10:50:59;;;;;;;26.10;12.80;;;;;;;0.90;71.15;99322.11;130803;1257;106943;-75
2023/03/05 10:54:14;;;;;;;141.90;57.20;;;;;;;0.94;71.05;99321.42;130807;1252;105388;-75
2023/03/05 10:57:23;;;;;;;56.50;23.50;;;;;;;1.06;71.10;99315.98;130791;1255;107557;-75
2023/03/05 11:00:31;;;;;;;310.90;104.20;;;;;;;1.20;70.94;99315.25;130824;1257;106260;-76
2023/03/05 11:03:53;;;;;;;74.30;27.70;;;;;;;1.29;70.98;99311.65;130750;1266;107545;-77
2023/03/05 11:06:57;;;;;;;;;;;;;;;1.25;71.24;99310.58;130826;1257;107400;-76
2023/03/05 11:10:20;;;;;;;29.40;13.40;;;;;;;1.22;71.40;99310.09;130795;1257;107594;-75
2023/03/05 11:13:28;;;;;;;25.40;13.10;;;;;;;1.18;71.74;99304.09;131086;1256;107562;-76
2023/03/05 11:16:45;;;;;;;24.30;12.60;;;;;;;1.13;71.79;99299.03;130992;1256;106680;-76
2023/03/05 11:19:51;;;;;;;18.50;9.90;;;;;;;1.09;72.14;99294.03;130913;1256;107454;-79
2023/03/05 11:23:10;;;;;;;17.00;10.80;;;;;;;1.16;72.31;99290.04;131161;1256;107532;-74
2023/03/05 11:26:23;;;;;;;14.90;8.20;;;;;;;1.28;71.88;99282.31;131079;1257;107513;-76
2023/03/05 11:29:29;;;;;;;;;;;;;;;1.42;72.55;99271.73;130980;1254;106485;-73
2023/03/05 11:32:34;;;;;;;16.90;10.20;;;;;;;1.43;72.28;99272.19;131038;1253;107415;-74
2023/03/05 11:35:42;;;;;;;34.20;17.30;;;;;;;1.50;72.08;99264.83;131025;1256;107583;-75
2023/03/05 11:38:53;;;;;;;26.60;14.50;;;;;;;1.58;72.32;99259.84;131167;1256;109041;-75
2023/03/05 11:42:02;;;;;;;26.80;17.40;;;;;;;1.67;72.29;99259.14;130887;1257;107482;-75
2023/03/05 11:45:18;;;;;;;20.90;12.50;;;;;;;1.73;72.26;99254.42;130913;1255;107498;-76
2023/03/05 11:48:28;;;;;;;19.00;12.20;;;;;;;1.75;72.38;99253.71;130986;1256;107401;-72
2023/03/05 11:51:45;;;;;;;19.60;12.40;;;;;;;1.72;72.40;99249.98;131075;1257;107567;-74
2023/03/05 11:54:58;;;;;;;28.40;19.00;;;;;;;1.64;72.40;99247.63;131129;1263;107210;-74
2023/03/05 11:58:22;;;;;;;25.50;14.60;;;;;;;1.61;72.42;99243.09;130931;1256;107264;-76
2023/03/05 12:01:31;;;;;;;22.20;12.90;;;;;;;1.58;72.39;99234.23;130935;1256;107302;-75
2023/03/05 12:04:38;;;;;;;26.80;16.00;;;;;;;1.61;72.69;99234.73;131101;1256;107369;-75
2023/03/05 12:07:48;;;;;;;21.30;12.10;;;;;;;1.58;72.68;99232.45;130973;1260;107541;-75
2023/03/05 12:10:55;;;;;;;21.10;10.50;;;;;;;1.54;72.84;99226.59;131068;1266;107585;-75
2023/03/05 12:14:09;;;;;;;27.30;12.40;;;;;;;1.52;73.19;99226.79;131066;1257;107555;-75
2023/03/05 12:17:22;;;;;;;23.00;11.50;;;;;;;1.53;73.15;99214.27;131034;1260;106248;-75
2023/03/05 12:20:38;;;;;;;20.40;10.70;;;;;;;1.56;73.41;99213.86;130982;1264;108690;-75
2023/03/05 12:23:49;;;;;;;21.80;11.70;;;;;;;1.65;73.25;99206.71;130935;1257;107525;-74
2023/03/05 12:27:13;;;;;;;22.60;11.30;;;;;;;1.68;73.36;99206.76;130999;1257;107395;-74
2023/03/05 12:30:58;;;;;;;18.30;9.70;;;;;;;1.64;73.35;99210.61;131067;1257;107581;-75
2023/03/05 12:34:37;;;;;;;19.50;9.30;;;;;;;1.33;73.43;99211.08;130937;1256;106137;-75
2023/03/05 12:38:02;;;;;;;16.50;8.20;;;;;;;1.27;73.63;99214.73;131032;1263;107626;-74
2023/03/05 12:41:37;;;;;;;21.10;9.00;;;;;;;1.20;73.77;99212.45;130984;1251;108716;-75
2023/03/05 12:44:42;;;;;;;15.30;8.30;;;;;;;1.19;73.36;99214.99;130931;1257;107563;-75
2023/03/05 12:48:10;;;;;;;14.30;8.00;;;;;;;1.20;73.62;99213.34;130948;1264;106803;-74
2023/03/05 12:51:37;;;;;;;20.10;12.10;;;;;;;1.00;73.79;99210.84;131072;1257;107640;-76
2023/03/05 12:54:44;;;;;;;17.50;9.00;;;;;;;0.88;73.89;99216.48;130937;1265;107937;-75
2023/03/05 12:57:57;;;;;;;17.20;10.20;;;;;;;0.89;73.87;99221.50;130896;1256;107542;-75
2023/03/05 13:01:03;;;;;;;;;;;;;;;0.88;73.91;99220.55;130922;1251;107499;-75
2023/03/05 13:04:18;;;;;;;18.60;9.90;;;;;;;0.86;73.92;99219.67;131026;1257;107521;-74
2023/03/05 13:07:24;;;;;;;19.80;11.30;;;;;;;0.78;74.63;99221.67;131110;1261;107567;-74
2023/03/05 13:10:30;;;;;;;29.30;14.50;;;;;;;0.64;74.66;99223.52;131121;1255;105900;-78
2023/03/05 13:13:41;;;;;;;42.70;20.20;;;;;;;0.58;74.47;99221.38;131219;1251;106594;-73
2023/03/05 13:16:47;;;;;;;71.50;31.70;;;;;;;0.54;74.89;99219.75;131084;1254;107237;-75
2023/03/05 13:19:53;;;;;;;21.80;12.40;;;;;;;0.46;75.13;99223.16;130929;1256;107542;-75
2023/03/05 13:23:13;;;;;;;23.00;11.60;;;;;;;0.45;75.34;99223.77;131200;1256;107438;-76
2023/03/05 13:26:20;;;;;;;28.60;16.70;;;;;;;0.47;75.63;99221.14;131008;1264;107385;-76
2023/03/05 13:29:29;;;;;;;27.00;11.90;;;;;;;0.55;75.17;99218.25;131109;1256;107536;-76
2023/03/05 13:32:35;;;;;;;25.80;13.20;;;;;;;0.68;75.22;99220.27;131060;1256;107524;-75
2023/03/05 13:35:46;;;;;;;28.90;16.50;;;;;;;0.82;74.93;99218.85;131247;1256;107630;-70
2023/03/05 13:38:53;;;;;;;34.30;21.40;;;;;;;0.96;74.54;99215.23;131089;1251;107261;-71
2023/03/05 13:42:02;;;;;;;32.80;17.70;;;;;;;1.07;74.82;99215.38;131132;1256;106077;-72
2023/03/05 13:45:23;;;;;;;27.90;16.30;;;;;;;1.03;75.02;99214.64;131113;1264;107524;-72
2023/03/05 13:48:29;;;;;;;29.80;17.30;;;;;;;0.92;74.75;99215.30;131042;1251;106705;-75
2023/03/05 13:51:52;;;;;;;31.70;17.80;;;;;;;0.87;75.25;99210.96;130942;1254;107567;-76
2023/03/05 13:54:58;;;;;;;32.80;20.10;;;;;;;0.79;75.12;99213.17;130802;1257;108751;-75
2023/03/05 13:58:04;;;;;;;29.90;17.60;;;;;;;0.73;75.32;99212.51;130648;1257;107606;-74
2023/03/05 14:01:18;;;;;;;36.80;19.90;;;;;;;0.69;75.60;99210.40;130749;1266;107569;-74
2023/03/05 14:04:26;;;;;;;30.80;17.40;;;;;;;0.76;75.45;99207.10;131017;1258;107590;-72
2023/03/05 14:07:38;;;;;;;28.70;16.00;;;;;;;0.87;75.90;99204.64;130864;1258;107239;-72
2023/03/05 14:10:44;;;;;;;32.20;19.50;;;;;;;0.90;75.96;99204.23;130792;1257;107327;-74
2023/03/05 14:14:00;;;;;;;30.60;17.70;;;;;;;0.90;76.08;99198.11;130764;1257;107590;-76
2023/03/05 14:17:32;;;;;;;29.40;17.40;;;;;;;0.88;75.80;99201.46;130848;1258;107528;-76